createdAt,value
2019-05-22T00:01:01.710Z,24.49
2019-05-22T00:03:09.702Z,24.44
2019-05-22T00:05:32.411Z,24.43
2019-05-22T00:07:42.540Z,24.44
2019-05-22T00:09:52.788Z,24.55
2019-05-22T00:12:01.113Z,24.48
2019-05-22T00:14:10.976Z,24.40
2019-05-22T00:16:21.543Z,24.45
2019-05-22T00:18:31.194Z,24.39
2019-05-22T00:20:42.226Z,24.48
2019-05-22T00:22:49.284Z,24.47
2019-05-22T00:24:59.341Z,24.47
2019-05-22T00:27:09.853Z,24.47
2019-05-22T00:29:17.609Z,24.47
2019-05-22T00:31:26.791Z,24.53
2019-05-22T00:33:36.795Z,24.54
2019-05-22T00:35:45.478Z,24.53
2019-05-22T00:37:54.329Z,24.50
2019-05-22T00:40:04.481Z,24.54
2019-05-22T00:42:13.647Z,24.56
2019-05-22T00:44:21.703Z,24.53
2019-05-22T00:46:30.574Z,24.48
2019-05-22T00:48:39.089Z,24.41
2019-05-22T00:50:54.969Z,24.33
2019-05-22T00:53:23.863Z,24.26
2019-05-22T00:56:01.362Z,24.26
2019-05-22T00:58:16.323Z,24.16
2019-05-22T01:00:34.848Z,24.15
2019-05-22T01:02:43.139Z,24.18
2019-05-22T01:04:51.329Z,24.25
2019-05-22T01:06:59.064Z,24.23
2019-05-22T01:09:09.267Z,24.21
2019-05-22T01:11:16.798Z,24.23
2019-05-22T01:13:23.996Z,24.19
2019-05-22T01:15:32.254Z,24.18
2019-05-22T01:17:42.065Z,24.21
2019-05-22T01:19:52.585Z,24.21
2019-05-22T01:22:02.152Z,24.27
2019-05-22T01:24:10.891Z,24.19
2019-05-22T01:26:21.597Z,24.12
2019-05-22T01:28:33.590Z,24.09
2019-05-22T01:31:08.661Z,24.06
2019-05-22T01:33:23.500Z,23.99
2019-05-22T01:35:36.942Z,23.94
2019-05-22T01:37:45.895Z,23.86
2019-05-22T01:40:10.677Z,23.80
2019-05-22T01:42:28.802Z,23.74
2019-05-22T01:44:36.804Z,23.68
2019-05-22T01:46:46.511Z,23.61
2019-05-22T01:48:57.351Z,23.57
2019-05-22T01:51:06.752Z,23.64
2019-05-22T01:53:16.112Z,23.58
2019-05-22T01:55:24.110Z,23.53
2019-05-22T01:57:31.838Z,23.58
2019-05-22T01:59:39.787Z,23.58
2019-05-22T02:01:48.518Z,23.60
2019-05-22T02:03:57.686Z,23.61
2019-05-22T02:06:06.644Z,23.51
2019-05-22T02:08:14.944Z,23.59
2019-05-22T02:10:28.231Z,23.63
2019-05-22T02:12:53.306Z,23.64
2019-05-22T02:15:01.991Z,23.65
2019-05-22T02:17:12.635Z,23.65
2019-05-22T02:19:21.177Z,23.57
2019-05-22T02:21:30.251Z,23.53
2019-05-22T02:23:38.619Z,23.44
2019-05-22T02:25:46.364Z,23.41
2019-05-22T02:27:54.660Z,23.43
2019-05-22T02:30:02.355Z,23.49
2019-05-22T02:32:12.986Z,23.58
2019-05-22T02:34:20.423Z,23.61
2019-05-22T02:36:28.091Z,23.62
2019-05-22T02:38:36.188Z,23.61
2019-05-22T02:40:45.482Z,23.60
2019-05-22T02:42:53.844Z,23.63
2019-05-22T02:45:02.661Z,23.66
2019-05-22T02:47:19.700Z,23.63
2019-05-22T02:49:23.548Z,23.63
2019-05-22T02:51:31.527Z,23.65
2019-05-22T02:53:38.907Z,23.59
2019-05-22T02:55:47.276Z,23.65
2019-05-22T02:57:55.622Z,23.58
2019-05-22T03:00:04.222Z,23.64
2019-05-22T03:02:12.841Z,23.65
2019-05-22T03:04:20.620Z,23.58
2019-05-22T03:06:28.467Z,23.58
2019-05-22T03:09:14.342Z,23.55
2019-05-22T03:11:22.835Z,23.53
2019-05-22T03:14:00.210Z,23.49
2019-05-22T03:16:10.212Z,23.54
2019-05-22T03:18:20.405Z,23.52
2019-05-22T03:20:29.360Z,23.49
2019-05-22T03:22:42.703Z,23.50
2019-05-22T03:24:52.090Z,23.51
2019-05-22T03:26:59.780Z,23.55
2019-05-22T03:29:07.253Z,23.56
2019-05-22T03:31:17.623Z,23.55
2019-05-22T03:33:26.257Z,23.57
2019-05-22T03:35:39.205Z,23.56
2019-05-22T03:37:48.165Z,23.58
2019-05-22T03:39:56.647Z,23.58
2019-05-22T03:42:04.789Z,23.57
2019-05-22T03:44:12.218Z,23.58
2019-05-22T03:46:49.026Z,23.55
2019-05-22T03:48:58.119Z,23.56
2019-05-22T03:51:15.491Z,23.49
2019-05-22T03:53:25.375Z,23.51
2019-05-22T03:55:33.226Z,23.50
2019-05-22T03:57:41.821Z,23.49
2019-05-22T03:59:49.799Z,23.52
2019-05-22T04:01:59.525Z,23.37
2019-05-22T04:04:10.363Z,23.29
2019-05-22T04:06:18.089Z,23.34
2019-05-22T04:08:27.044Z,23.24
2019-05-22T04:10:41.640Z,23.08
2019-05-22T04:12:50.749Z,23.24
2019-05-22T04:14:58.615Z,23.27
2019-05-22T04:17:09.382Z,23.27
2019-05-22T04:19:17.552Z,23.23
2019-05-22T04:21:26.229Z,23.20
2019-05-22T04:23:33.440Z,23.23
2019-05-22T04:25:40.855Z,23.18
2019-05-22T04:27:49.111Z,23.19
2019-05-22T04:29:57.679Z,23.22
2019-05-22T04:32:23.590Z,23.24
2019-05-22T04:34:32.370Z,23.29
2019-05-22T04:36:40.520Z,23.28
2019-05-22T04:38:48.034Z,23.30
2019-05-22T04:40:57.290Z,23.27
2019-05-22T04:43:05.235Z,23.28
2019-05-22T04:45:15.863Z,23.28
2019-05-22T04:47:24.991Z,23.27
2019-05-22T04:49:33.068Z,23.31
2019-05-22T04:51:40.851Z,23.32
2019-05-22T04:53:48.030Z,23.33
2019-05-22T04:55:55.787Z,23.27
2019-05-22T04:58:05.074Z,23.30
2019-05-22T05:00:12.830Z,23.29
2019-05-22T05:02:21.585Z,23.29
2019-05-22T05:06:43.102Z,23.29
2019-05-22T05:08:51.823Z,23.24
2019-05-22T05:11:03.661Z,23.25
2019-05-22T05:13:11.345Z,23.14
2019-05-22T05:15:19.916Z,23.19
2019-05-22T05:17:27.743Z,23.21
2019-05-22T05:19:35.009Z,23.21
2019-05-22T05:21:42.658Z,23.20
2019-05-22T05:23:50.563Z,23.17
2019-05-22T05:25:57.818Z,23.15
2019-05-22T05:28:07.615Z,23.16
2019-05-22T05:30:16.270Z,23.15
2019-05-22T05:32:23.279Z,23.12
2019-05-22T05:34:40.433Z,23.07
2019-05-22T05:36:48.157Z,23.04
2019-05-22T05:38:56.823Z,22.99
2019-05-22T05:41:04.157Z,22.98
2019-05-22T05:43:19.568Z,22.94
2019-05-22T05:45:27.776Z,22.88
2019-05-22T05:47:35.304Z,22.93
2019-05-22T05:49:43.254Z,22.98
2019-05-22T05:51:52.187Z,23.00
2019-05-22T05:54:09.883Z,23.02
2019-05-22T05:56:18.612Z,23.03
2019-05-22T05:58:31.359Z,23.08
2019-05-22T06:00:44.565Z,23.05
2019-05-22T06:02:56.454Z,23.03
2019-05-22T06:05:00.443Z,22.99
2019-05-22T06:07:28.443Z,22.99
2019-05-22T06:09:36.404Z,23.22
2019-05-22T06:11:51.044Z,23.44
2019-05-22T06:13:58.256Z,23.60
2019-05-22T06:16:50.713Z,23.83
2019-05-22T06:18:59.341Z,23.95
2019-05-22T06:21:09.167Z,23.72
2019-05-22T06:23:56.978Z,23.57
2019-05-22T06:26:05.321Z,23.49
2019-05-22T06:28:16.411Z,23.41
2019-05-22T06:30:44.830Z,23.33
2019-05-22T06:33:31.641Z,23.27
2019-05-22T06:35:39.247Z,23.23
2019-05-22T06:37:57.652Z,23.16
2019-05-22T06:40:06.514Z,23.13
2019-05-22T06:42:13.720Z,23.09
2019-05-22T06:44:41.320Z,23.07
2019-05-22T06:46:49.305Z,23.04
2019-05-22T06:48:58.112Z,23.02
2019-05-22T06:51:18.547Z,23.04
2019-05-22T06:53:15.089Z,22.99
2019-05-22T06:55:22.404Z,22.99
2019-05-22T06:57:34.740Z,22.98
2019-05-22T06:59:44.197Z,22.94
2019-05-22T07:02:00.791Z,22.95
2019-05-22T07:04:00.884Z,23.01
2019-05-22T07:06:08.901Z,23.03
2019-05-22T07:08:18.171Z,23.01
2019-05-22T07:10:26.565Z,22.99
2019-05-22T07:12:35.356Z,22.96
2019-05-22T07:14:52.059Z,23.02
2019-05-22T07:16:59.553Z,23.00
2019-05-22T07:19:10.836Z,22.88
2019-05-22T07:21:18.426Z,22.85
2019-05-22T07:23:35.541Z,22.83
2019-05-22T07:25:45.459Z,22.78
2019-05-22T07:27:52.913Z,22.77
2019-05-22T07:30:00.179Z,22.76
2019-05-22T07:32:08.600Z,22.74
2019-05-22T07:34:16.163Z,22.76
2019-05-22T07:36:25.448Z,22.77
2019-05-22T07:38:32.927Z,22.76
2019-05-22T07:40:40.196Z,22.74
2019-05-22T07:42:47.618Z,22.72
2019-05-22T07:44:56.568Z,22.71
2019-05-22T07:47:06.233Z,22.70
2019-05-22T07:49:13.588Z,22.69
2019-05-22T07:51:21.643Z,22.68
2019-05-22T07:53:30.260Z,22.64
2019-05-22T07:55:37.741Z,22.65
2019-05-22T07:57:48.281Z,22.66
2019-05-22T07:59:55.942Z,22.63
2019-05-22T08:02:04.838Z,22.61
2019-05-22T08:04:13.684Z,22.59
2019-05-22T08:06:22.365Z,22.58
2019-05-22T08:08:32.233Z,22.52
2019-05-22T08:10:40.067Z,22.59
2019-05-22T08:12:47.965Z,22.62
2019-05-22T08:14:56.232Z,22.89
2019-05-22T08:17:05.359Z,23.07
2019-05-22T08:19:12.836Z,23.28
2019-05-22T08:21:23.425Z,23.49
2019-05-22T08:23:31.019Z,23.56
2019-05-22T08:25:39.229Z,23.63
2019-05-22T08:27:48.715Z,23.40
2019-05-22T08:29:57.512Z,23.46
2019-05-22T08:32:06.367Z,23.32
2019-05-22T08:34:14.952Z,23.27
2019-05-22T08:36:22.404Z,23.20
2019-05-22T08:38:33.205Z,23.15
2019-05-22T08:40:41.587Z,23.09
2019-05-22T08:42:50.173Z,23.07
2019-05-22T08:44:58.850Z,23.07
2019-05-22T08:47:07.999Z,23.07
2019-05-22T08:49:16.331Z,23.03
2019-05-22T08:51:24.079Z,23.01
2019-05-22T08:53:45.943Z,22.98
2019-05-22T08:55:42.416Z,22.95
2019-05-22T08:57:50.195Z,22.92
2019-05-22T08:59:57.336Z,22.88
2019-05-22T09:02:07.129Z,22.86
2019-05-22T09:04:14.843Z,22.80
2019-05-22T09:06:22.117Z,22.79
2019-05-22T09:08:29.971Z,22.78
2019-05-22T09:10:37.810Z,22.73
2019-05-22T09:12:45.675Z,22.76
2019-05-22T09:14:53.719Z,22.80
2019-05-22T09:17:01.528Z,22.55
2019-05-22T09:19:09.397Z,22.78
2019-05-22T09:21:17.096Z,22.80
2019-05-22T09:23:24.838Z,22.78
2019-05-22T09:25:33.355Z,22.75
2019-05-22T09:27:41.294Z,22.77
2019-05-22T09:29:48.536Z,22.67
2019-05-22T09:31:56.029Z,22.63
2019-05-22T09:34:03.373Z,22.61
2019-05-22T09:36:11.730Z,22.65
2019-05-22T09:38:19.519Z,22.63
2019-05-22T09:40:26.777Z,22.62
2019-05-22T09:42:34.929Z,22.61
2019-05-22T09:44:42.902Z,22.60
2019-05-22T09:46:49.873Z,22.60
2019-05-22T09:48:57.296Z,22.56
2019-05-22T09:51:04.849Z,22.55
2019-05-22T09:53:12.312Z,22.55
2019-05-22T09:55:20.448Z,22.54
2019-05-22T09:57:28.352Z,22.52
2019-05-22T09:59:35.816Z,22.54
2019-05-22T10:01:43.185Z,22.54
2019-05-22T10:03:50.555Z,22.50
2019-05-22T10:05:57.870Z,22.48
2019-05-22T10:08:06.118Z,22.48
2019-05-22T10:10:13.884Z,22.49
2019-05-22T10:12:21.683Z,22.46
2019-05-22T10:14:29.053Z,22.46
2019-05-22T10:16:36.308Z,22.52
2019-05-22T10:18:43.939Z,22.50
2019-05-22T10:20:50.970Z,22.44
2019-05-22T10:23:14.031Z,22.67
2019-05-22T10:25:16.388Z,22.92
2019-05-22T10:27:21.691Z,22.95
2019-05-22T10:29:32.208Z,23.25
2019-05-22T10:31:38.639Z,23.46
2019-05-22T10:33:45.753Z,23.55
2019-05-22T10:35:53.526Z,23.55
2019-05-22T10:38:01.296Z,23.76
2019-05-22T10:40:09.103Z,23.61
2019-05-22T10:42:16.799Z,23.53
2019-05-22T10:44:23.950Z,23.53
2019-05-22T10:46:31.212Z,23.48
2019-05-22T10:48:40.367Z,23.40
2019-05-22T10:50:47.963Z,23.31
2019-05-22T10:52:55.621Z,23.23
2019-05-22T10:55:04.947Z,23.19
2019-05-22T10:57:12.993Z,23.15
2019-05-22T10:59:20.359Z,23.11
2019-05-22T11:01:28.105Z,23.05
2019-05-22T11:03:35.747Z,23.03
2019-05-22T11:05:43.038Z,22.98
2019-05-22T11:07:51.389Z,22.97
2019-05-22T11:09:58.885Z,22.93
2019-05-22T11:12:07.119Z,22.94
2019-05-22T11:14:15.374Z,22.94
2019-05-22T11:16:22.863Z,22.90
2019-05-22T11:18:30.778Z,22.86
2019-05-22T11:20:38.125Z,22.79
2019-05-22T11:22:47.036Z,22.78
2019-05-22T11:24:54.406Z,22.78
2019-05-22T11:27:01.633Z,22.87
2019-05-22T11:29:09.029Z,22.87
2019-05-22T11:31:16.677Z,22.87
2019-05-22T11:33:24.184Z,22.88
2019-05-22T11:35:33.726Z,22.88
2019-05-22T11:37:41.165Z,23.08
2019-05-22T11:39:48.543Z,22.97
2019-05-22T11:41:56.174Z,23.70
2019-05-22T11:44:03.201Z,23.93
2019-05-22T11:46:10.830Z,24.09
2019-05-22T11:48:20.452Z,24.16
2019-05-22T11:50:28.387Z,24.31
2019-05-22T11:52:36.329Z,24.45
2019-05-22T11:54:43.862Z,24.52
2019-05-22T11:56:51.039Z,24.66
2019-05-22T11:58:58.150Z,24.86
2019-05-22T12:01:07.245Z,24.90
2019-05-22T12:03:15.023Z,24.95
2019-05-22T12:05:23.517Z,24.98
2019-05-22T12:07:31.041Z,25.00
2019-05-22T12:09:38.727Z,25.04
2019-05-22T12:11:46.485Z,25.02
2019-05-22T12:13:55.765Z,25.15
2019-05-22T12:16:05.245Z,25.24
2019-05-22T12:18:13.788Z,25.39
2019-05-22T12:20:22.205Z,25.30
2019-05-22T12:22:29.516Z,25.24
2019-05-22T12:24:37.783Z,24.84
2019-05-22T12:26:45.095Z,24.50
2019-05-22T12:28:52.346Z,24.87
2019-05-22T12:31:00.708Z,24.70
2019-05-22T12:33:13.957Z,24.57
2019-05-22T12:35:19.256Z,24.43
2019-05-22T12:37:27.540Z,24.45
2019-05-22T12:39:35.865Z,24.40
2019-05-22T12:41:44.363Z,24.33
2019-05-22T12:43:53.713Z,24.33
2019-05-22T12:46:01.427Z,24.37
2019-05-22T12:48:09.312Z,24.63
2019-05-22T12:50:19.720Z,24.47
2019-05-22T12:52:27.235Z,24.81
2019-05-22T12:54:46.106Z,24.97
2019-05-22T12:56:44.781Z,25.10
2019-05-22T12:58:53.094Z,24.90
2019-05-22T13:01:01.261Z,24.73
2019-05-22T13:03:09.661Z,24.68
2019-05-22T13:05:18.736Z,24.65
2019-05-22T13:07:26.841Z,24.54
2019-05-22T13:09:34.173Z,24.55
2019-05-22T13:11:41.546Z,24.49
2019-05-22T13:13:48.769Z,24.48
2019-05-22T13:15:56.514Z,24.47
2019-05-22T13:18:13.006Z,24.39
2019-05-22T13:20:40.977Z,24.42
2019-05-22T13:22:37.138Z,24.34
2019-05-22T13:24:45.185Z,24.33
2019-05-22T13:26:54.522Z,24.31
2019-05-22T13:29:03.783Z,24.36
2019-05-22T13:31:12.057Z,24.28
2019-05-22T13:33:22.913Z,24.30
2019-05-22T13:35:31.341Z,24.28
2019-05-22T13:37:40.268Z,24.23
2019-05-22T13:39:48.135Z,24.22
2019-05-22T13:41:56.808Z,24.22
2019-05-22T13:44:06.430Z,24.40
2019-05-22T13:46:15.049Z,24.52
2019-05-22T13:48:22.676Z,24.72
2019-05-22T13:50:31.073Z,24.69
2019-05-22T13:52:40.185Z,24.82
2019-05-22T13:54:48.158Z,24.92
2019-05-22T13:56:55.748Z,25.15
2019-05-22T13:59:04.946Z,25.18
2019-05-22T14:01:13.072Z,25.10
2019-05-22T14:03:21.485Z,25.17
2019-05-22T14:05:32.028Z,25.20
2019-05-22T14:07:39.131Z,25.16
2019-05-22T14:09:46.708Z,25.13
2019-05-22T14:11:55.680Z,25.10
2019-05-22T14:14:04.860Z,25.01
2019-05-22T14:16:12.228Z,25.00
2019-05-22T14:18:20.259Z,24.96
2019-05-22T14:20:28.690Z,24.93
2019-05-22T14:22:35.962Z,24.84
2019-05-22T14:24:43.308Z,24.79
2019-05-22T14:26:52.132Z,24.75
2019-05-22T14:28:59.792Z,24.70
2019-05-22T14:31:07.493Z,24.70
2019-05-22T14:33:15.223Z,24.73
2019-05-22T14:35:24.134Z,24.73
2019-05-22T14:37:32.101Z,24.77
2019-05-22T14:39:40.717Z,24.82
2019-05-22T14:41:48.000Z,24.80
2019-05-22T14:43:55.711Z,24.81
2019-05-22T14:46:03.822Z,24.81
2019-05-22T14:48:12.124Z,24.77
2019-05-22T14:50:19.541Z,24.84
2019-05-22T14:52:26.899Z,24.86
2019-05-22T14:54:34.986Z,24.88
2019-05-22T14:56:43.284Z,24.85
2019-05-22T14:58:51.022Z,24.88
2019-05-22T15:00:58.865Z,24.87
2019-05-22T15:03:07.104Z,24.86
2019-05-22T15:05:15.148Z,24.85
2019-05-22T15:07:23.518Z,24.86
2019-05-22T15:09:30.851Z,24.88
2019-05-22T15:11:38.296Z,24.87
2019-05-22T15:13:45.630Z,24.87
2019-05-22T15:15:53.039Z,24.88
2019-05-22T15:18:00.358Z,24.87
2019-05-22T15:20:07.949Z,24.87
2019-05-22T15:22:16.201Z,24.87
2019-05-22T15:24:23.475Z,24.86
2019-05-22T15:26:31.271Z,24.86
2019-05-22T15:28:41.143Z,24.85
2019-05-22T15:30:48.934Z,24.87
2019-05-22T15:32:56.196Z,24.88
2019-05-22T15:35:04.303Z,24.86
2019-05-22T15:37:14.183Z,24.87
2019-05-22T15:39:24.204Z,24.87
2019-05-22T15:41:31.908Z,24.89
2019-05-22T15:43:39.720Z,24.92
2019-05-22T15:45:48.564Z,24.94
2019-05-22T15:47:59.007Z,24.94
2019-05-22T15:50:08.579Z,24.99
2019-05-22T15:52:17.393Z,24.98
2019-05-22T15:54:25.620Z,25.00
2019-05-22T15:56:35.853Z,25.00
2019-05-22T15:58:49.408Z,25.00
2019-05-22T16:00:59.320Z,24.98
2019-05-22T16:03:12.609Z,24.98
2019-05-22T16:05:22.754Z,25.00
2019-05-22T16:07:30.168Z,24.98
2019-05-22T16:09:38.374Z,24.96
2019-05-22T16:11:46.121Z,24.91
2019-05-22T16:13:54.824Z,24.91
2019-05-22T16:16:03.376Z,24.99
2019-05-22T16:18:12.629Z,24.98
2019-05-22T16:20:23.695Z,25.01
2019-05-22T16:22:31.058Z,25.03
2019-05-22T16:24:39.930Z,25.04
2019-05-22T16:26:47.391Z,25.03
2019-05-22T16:28:56.037Z,25.00
2019-05-22T16:31:05.411Z,25.04
2019-05-22T16:33:13.503Z,25.04
2019-05-22T16:35:21.337Z,25.03
2019-05-22T16:37:28.650Z,25.04
2019-05-22T16:39:37.565Z,25.00
2019-05-22T16:41:46.797Z,25.08
2019-05-22T16:43:55.762Z,25.09
2019-05-22T16:46:03.298Z,25.09
2019-05-22T16:48:27.839Z,25.10
2019-05-22T16:50:22.320Z,25.08
2019-05-22T16:52:30.637Z,25.08
2019-05-22T16:54:38.999Z,25.10
2019-05-22T16:56:46.757Z,25.12
2019-05-22T16:58:54.923Z,25.10
2019-05-22T17:01:02.050Z,25.13
2019-05-22T17:03:11.662Z,25.13
2019-05-22T17:05:20.090Z,25.09
2019-05-22T17:07:28.173Z,25.13
2019-05-22T17:09:36.789Z,25.16
2019-05-22T17:11:44.660Z,25.18
2019-05-22T17:13:53.413Z,25.17
2019-05-22T17:16:01.463Z,25.17
2019-05-22T17:18:11.611Z,25.18
2019-05-22T17:20:24.354Z,25.19
2019-05-22T17:22:31.667Z,25.18
2019-05-22T17:24:39.118Z,25.20
2019-05-22T17:26:46.697Z,25.12
2019-05-22T17:28:54.330Z,25.19
2019-05-22T17:31:02.758Z,25.41
2019-05-22T17:33:11.406Z,25.64
2019-05-22T17:35:21.446Z,25.79
2019-05-22T17:37:30.378Z,25.71
2019-05-22T17:39:39.971Z,25.77
2019-05-22T17:41:48.295Z,25.99
2019-05-22T17:43:57.110Z,26.17
2019-05-22T17:46:07.298Z,26.29
2019-05-22T17:48:15.722Z,26.30
2019-05-22T17:50:27.162Z,26.39
2019-05-22T17:52:34.648Z,26.53
2019-05-22T17:54:43.339Z,26.70
2019-05-22T17:56:51.584Z,26.66
2019-05-22T17:58:59.192Z,26.70
2019-05-22T18:01:07.881Z,26.80
2019-05-22T18:03:16.111Z,26.91
2019-05-22T18:05:27.742Z,26.85
2019-05-22T18:07:36.237Z,26.85
2019-05-22T18:09:44.285Z,26.74
2019-05-22T18:11:52.257Z,26.71
2019-05-22T18:14:06.585Z,26.74
2019-05-22T18:16:14.662Z,26.72
2019-05-22T18:18:24.142Z,26.75
2019-05-22T18:20:42.227Z,26.74
2019-05-22T18:22:40.637Z,26.72
2019-05-22T18:24:48.252Z,26.72
2019-05-22T18:26:55.832Z,26.68
2019-05-22T18:29:03.471Z,26.67
2019-05-22T18:31:10.859Z,26.64
2019-05-22T18:33:18.661Z,26.62
2019-05-22T18:35:27.661Z,26.57
2019-05-22T18:37:36.720Z,26.59
2019-05-22T18:39:45.297Z,26.50
2019-05-22T18:41:53.931Z,26.53
2019-05-22T18:44:01.796Z,26.48
2019-05-22T18:46:09.625Z,26.46
2019-05-22T18:48:17.216Z,26.47
2019-05-22T18:50:24.876Z,26.44
2019-05-22T18:52:40.886Z,26.49
2019-05-22T18:54:42.682Z,26.48
2019-05-22T18:56:49.792Z,26.49
2019-05-22T18:58:57.762Z,26.46
2019-05-22T19:01:05.531Z,26.43
2019-05-22T19:03:13.133Z,26.50
2019-05-22T19:05:23.056Z,26.50
2019-05-22T19:07:30.645Z,26.47
2019-05-22T19:09:39.255Z,26.51
2019-05-22T19:11:46.783Z,26.47
2019-05-22T19:13:53.915Z,26.48
2019-05-22T19:16:01.794Z,26.50
2019-05-22T19:18:09.613Z,26.46
2019-05-22T19:20:17.425Z,26.47
2019-05-22T19:22:25.182Z,26.51
2019-05-22T19:24:34.268Z,26.47
2019-05-22T19:26:42.515Z,26.49
2019-05-22T19:28:50.794Z,26.48
2019-05-22T19:30:57.998Z,26.46
2019-05-22T19:33:07.125Z,26.50
2019-05-22T19:35:15.440Z,26.48
2019-05-22T19:37:22.907Z,26.49
2019-05-22T19:39:30.825Z,26.51
2019-05-22T19:41:38.073Z,26.50
2019-05-22T19:43:46.043Z,26.50
2019-05-22T19:45:53.389Z,26.52
2019-05-22T19:48:01.666Z,26.53
2019-05-22T19:50:22.642Z,26.51
2019-05-22T19:52:22.462Z,26.54
2019-05-22T19:54:29.129Z,26.56
2019-05-22T19:56:36.363Z,26.54
2019-05-22T19:58:45.293Z,26.56
2019-05-22T20:00:52.650Z,26.56
2019-05-22T20:03:00.925Z,26.59
2019-05-22T20:05:08.849Z,26.59
2019-05-22T20:07:18.700Z,26.63
2019-05-22T20:09:26.299Z,26.63
2019-05-22T20:11:33.612Z,26.62
2019-05-22T20:13:41.359Z,26.61
2019-05-22T20:15:48.697Z,26.62
2019-05-22T20:17:56.575Z,26.64
2019-05-22T20:20:04.330Z,26.62
2019-05-22T20:22:13.583Z,26.65
2019-05-22T20:24:21.451Z,26.64
2019-05-22T20:26:28.594Z,26.66
2019-05-22T20:28:35.840Z,26.66
2019-05-22T20:30:43.514Z,26.68
2019-05-22T20:32:51.553Z,26.67
2019-05-22T20:34:59.147Z,26.63
2019-05-22T20:37:07.864Z,26.66
2019-05-22T20:39:19.094Z,26.68
2019-05-22T20:41:26.908Z,26.68
2019-05-22T20:43:35.384Z,26.65
2019-05-22T20:45:46.134Z,26.66
2019-05-22T20:48:08.488Z,26.71
2019-05-22T20:50:16.874Z,26.72
2019-05-22T20:52:26.094Z,26.73
2019-05-22T20:54:35.059Z,26.73
2019-05-22T20:56:44.389Z,26.69
2019-05-22T20:58:52.589Z,26.69
2019-05-22T21:01:01.303Z,26.73
2019-05-22T21:03:10.350Z,26.69
2019-05-22T21:05:20.388Z,26.73
2019-05-22T21:07:36.574Z,26.76
2019-05-22T21:09:45.721Z,26.76
2019-05-22T21:11:53.703Z,26.73
2019-05-22T21:14:01.613Z,26.71
2019-05-22T21:16:10.008Z,26.74
2019-05-22T21:18:27.271Z,26.76
2019-05-22T21:20:35.233Z,26.77
2019-05-22T21:22:43.195Z,26.76
2019-05-22T21:24:51.420Z,26.74
2019-05-22T21:26:59.717Z,26.77
2019-05-22T21:29:07.931Z,26.74
2019-05-22T21:31:17.206Z,26.74
2019-05-22T21:33:25.918Z,26.78
2019-05-22T21:35:34.127Z,26.80
2019-05-22T21:37:41.707Z,26.71
2019-05-22T21:42:49.585Z,26.72
2019-05-22T21:45:03.723Z,26.73
2019-05-22T21:47:12.021Z,26.70
2019-05-22T21:49:19.871Z,26.61
2019-05-22T21:51:27.725Z,26.59
2019-05-22T21:53:35.605Z,26.62
2019-05-22T21:55:45.962Z,26.64
2019-05-22T21:57:53.535Z,26.67
2019-05-22T22:00:18.227Z,26.80
2019-05-22T22:02:40.641Z,26.73
2019-05-22T22:04:48.645Z,26.71
2019-05-22T22:06:57.161Z,26.73
2019-05-22T22:09:11.869Z,26.74
2019-05-22T22:11:22.474Z,26.72
2019-05-22T22:13:30.429Z,26.74
2019-05-22T22:15:43.417Z,26.81
2019-05-22T22:17:51.627Z,26.79
2019-05-22T22:19:59.899Z,26.73
2019-05-22T22:22:15.561Z,26.70
2019-05-22T22:24:23.937Z,26.72
2019-05-22T22:26:31.495Z,26.67
2019-05-22T22:28:39.061Z,26.84
2019-05-22T22:30:55.265Z,26.74
2019-05-22T22:33:05.741Z,26.79
2019-05-22T22:35:17.045Z,26.76
2019-05-22T22:37:25.323Z,26.82
2019-05-22T22:39:33.686Z,26.85
2019-05-22T22:41:44.401Z,26.90
2019-05-22T22:43:53.498Z,26.94
2019-05-22T22:46:13.658Z,26.79
2019-05-22T22:48:24.343Z,26.81
2019-05-22T22:50:32.075Z,26.89
2019-05-22T22:52:42.579Z,26.84
2019-05-22T22:54:50.512Z,26.87
2019-05-22T22:56:58.828Z,26.91
2019-05-22T22:59:08.546Z,26.82
2019-05-22T23:01:24.292Z,26.80
2019-05-22T23:03:36.274Z,26.72
2019-05-22T23:05:50.878Z,26.58
2019-05-22T23:08:13.449Z,26.47
2019-05-22T23:10:23.760Z,26.54
2019-05-22T23:12:31.768Z,26.60
2019-05-22T23:14:41.378Z,26.60
2019-05-22T23:16:49.183Z,26.61
2019-05-22T23:19:36.365Z,26.67
2019-05-22T23:21:40.803Z,26.72
2019-05-22T23:24:01.256Z,26.80
2019-05-22T23:26:09.492Z,26.87
2019-05-22T23:28:33.692Z,26.89
2019-05-22T23:30:28.325Z,26.92
2019-05-22T23:32:36.870Z,26.92
2019-05-22T23:34:45.536Z,27.02
2019-05-22T23:36:53.104Z,27.12
2019-05-22T23:39:05.580Z,27.11
2019-05-22T23:41:14.350Z,27.08
2019-05-22T23:43:25.201Z,27.25
2019-05-22T23:45:34.420Z,26.98
2019-05-22T23:48:06.392Z,26.92
2019-05-22T23:50:16.026Z,26.93
2019-05-22T23:52:23.659Z,26.79
2019-05-22T23:54:31.792Z,26.74
2019-05-22T23:56:40.531Z,26.80
2019-05-22T23:58:52.745Z,26.74
